sensor_id;sensor_type;location;lat;lon;timestamp;P1;durP1;ratioP1;P2;durP2;ratioP2
43457;SDS011;29046;54.184;18.680;2022-12-29T00:00:27;8.45;;;5.38;;
43457;SDS011;29046;54.184;18.680;2022-12-29T00:03:20;10.43;;;5.88;;
43457;SDS011;29046;54.184;18.680;2022-12-29T00:05:54;13.77;;;5.00;;
43457;SDS011;29046;54.184;18.680;2022-12-29T00:08:42;5.90;;;3.17;;
43457;SDS011;29046;54.184;18.680;2022-12-29T00:11:17;8.45;;;5.20;;
43457;SDS011;29046;54.184;18.680;2022-12-29T00:14:05;11.05;;;5.20;;
43457;SDS011;29046;54.184;18.680;2022-12-29T00:16:58;9.32;;;5.35;;
43457;SDS011;29046;54.184;18.680;2022-12-29T00:19:46;7.53;;;4.97;;
43457;SDS011;29046;54.184;18.680;2022-12-29T00:22:45;11.35;;;4.78;;
43457;SDS011;29046;54.184;18.680;2022-12-29T00:25:45;8.77;;;4.60;;
43457;SDS011;29046;54.184;18.680;2022-12-29T00:28:44;13.82;;;5.60;;
43457;SDS011;29046;54.184;18.680;2022-12-29T00:31:50;9.23;;;3.92;;
43457;SDS011;29046;54.184;18.680;2022-12-29T00:34:42;6.60;;;4.53;;
43457;SDS011;29046;54.184;18.680;2022-12-29T00:37:50;8.65;;;4.95;;
43457;SDS011;29046;54.184;18.680;2022-12-29T00:40:49;5.82;;;3.67;;
43457;SDS011;29046;54.184;18.680;2022-12-29T00:43:50;9.95;;;5.20;;
43457;SDS011;29046;54.184;18.680;2022-12-29T00:46:46;10.00;;;5.03;;
43457;SDS011;29046;54.184;18.680;2022-12-29T00:49:27;7.90;;;4.32;;
43457;SDS011;29046;54.184;18.680;2022-12-29T00:52:12;10.13;;;6.50;;
43457;SDS011;29046;54.184;18.680;2022-12-29T00:54:52;8.85;;;5.25;;
43457;SDS011;29046;54.184;18.680;2022-12-29T00:57:32;11.38;;;5.50;;
43457;SDS011;29046;54.184;18.680;2022-12-29T01:00:13;10.93;;;5.63;;
43457;SDS011;29046;54.184;18.680;2022-12-29T01:02:54;10.48;;;4.68;;
43457;SDS011;29046;54.184;18.680;2022-12-29T01:05:42;6.30;;;3.55;;
43457;SDS011;29046;54.184;18.680;2022-12-29T01:08:16;10.98;;;5.47;;
43457;SDS011;29046;54.184;18.680;2022-12-29T01:11:05;11.18;;;5.70;;
43457;SDS011;29046;54.184;18.680;2022-12-29T01:13:39;10.13;;;5.57;;
43457;SDS011;29046;54.184;18.680;2022-12-29T01:16:27;7.25;;;4.90;;
43457;SDS011;29046;54.184;18.680;2022-12-29T01:19:02;9.77;;;4.68;;
43457;SDS011;29046;54.184;18.680;2022-12-29T01:21:57;8.00;;;4.07;;
43457;SDS011;29046;54.184;18.680;2022-12-29T01:24:51;7.35;;;5.07;;
43457;SDS011;29046;54.184;18.680;2022-12-29T01:27:25;7.32;;;5.00;;
43457;SDS011;29046;54.184;18.680;2022-12-29T01:30:13;5.72;;;3.97;;
43457;SDS011;29046;54.184;18.680;2022-12-29T01:32:47;10.88;;;5.30;;
43457;SDS011;29046;54.184;18.680;2022-12-29T01:35:41;9.32;;;5.13;;
43457;SDS011;29046;54.184;18.680;2022-12-29T01:38:16;7.35;;;4.55;;
43457;SDS011;29046;54.184;18.680;2022-12-29T01:41:11;8.35;;;5.00;;
43457;SDS011;29046;54.184;18.680;2022-12-29T01:46:59;7.63;;;5.20;;
43457;SDS011;29046;54.184;18.680;2022-12-29T01:49:46;5.28;;;3.15;;
43457;SDS011;29046;54.184;18.680;2022-12-29T01:52:27;8.95;;;5.30;;
43457;SDS011;29046;54.184;18.680;2022-12-29T01:55:18;6.95;;;3.55;;
43457;SDS011;29046;54.184;18.680;2022-12-29T01:57:52;6.22;;;4.65;;
43457;SDS011;29046;54.184;18.680;2022-12-29T02:00:42;6.70;;;4.20;;
43457;SDS011;29046;54.184;18.680;2022-12-29T02:03:23;4.18;;;3.13;;
43457;SDS011;29046;54.184;18.680;2022-12-29T02:08:47;5.80;;;4.18;;
43457;SDS011;29046;54.184;18.680;2022-12-29T02:11:37;6.93;;;4.00;;
43457;SDS011;29046;54.184;18.680;2022-12-29T02:14:13;7.88;;;5.07;;
43457;SDS011;29046;54.184;18.680;2022-12-29T02:39:30;7.25;;;4.05;;
43457;SDS011;29046;54.184;18.680;2022-12-29T02:42:13;7.00;;;4.63;;
43457;SDS011;29046;54.184;18.680;2022-12-29T02:45:30;5.85;;;4.22;;
43457;SDS011;29046;54.184;18.680;2022-12-29T02:48:10;8.70;;;4.85;;
43457;SDS011;29046;54.184;18.680;2022-12-29T02:51:03;13.20;;;4.45;;
43457;SDS011;29046;54.184;18.680;2022-12-29T02:53:42;6.10;;;4.55;;
43457;SDS011;29046;54.184;18.680;2022-12-29T02:56:49;6.32;;;4.47;;
43457;SDS011;29046;54.184;18.680;2022-12-29T02:59:29;8.23;;;4.72;;
43457;SDS011;29046;54.184;18.680;2022-12-29T03:13:44;12.68;;;4.55;;
43457;SDS011;29046;54.184;18.680;2022-12-29T03:16:50;8.18;;;4.53;;
43457;SDS011;29046;54.184;18.680;2022-12-29T03:19:36;8.77;;;4.47;;
43457;SDS011;29046;54.184;18.680;2022-12-29T03:22:22;11.32;;;5.85;;
43457;SDS011;29046;54.184;18.680;2022-12-29T03:25:08;7.45;;;5.38;;
43457;SDS011;29046;54.184;18.680;2022-12-29T03:27:55;7.80;;;5.38;;
43457;SDS011;29046;54.184;18.680;2022-12-29T03:30:43;7.97;;;5.10;;
43457;SDS011;29046;54.184;18.680;2022-12-29T03:33:27;8.43;;;5.70;;
43457;SDS011;29046;54.184;18.680;2022-12-29T03:36:11;7.78;;;5.00;;
43457;SDS011;29046;54.184;18.680;2022-12-29T03:39:02;8.77;;;6.00;;
43457;SDS011;29046;54.184;18.680;2022-12-29T03:41:57;12.15;;;7.15;;
43457;SDS011;29046;54.184;18.680;2022-12-29T03:44:36;11.32;;;6.60;;
43457;SDS011;29046;54.184;18.680;2022-12-29T03:47:24;14.40;;;6.85;;
43457;SDS011;29046;54.184;18.680;2022-12-29T03:50:05;5.35;;;3.38;;
43457;SDS011;29046;54.184;18.680;2022-12-29T03:52:53;11.43;;;5.18;;
43457;SDS011;29046;54.184;18.680;2022-12-29T03:55:26;6.75;;;4.03;;
43457;SDS011;29046;54.184;18.680;2022-12-29T03:58:21;11.05;;;6.43;;
43457;SDS011;29046;54.184;18.680;2022-12-29T04:00:54;12.80;;;7.07;;
43457;SDS011;29046;54.184;18.680;2022-12-29T04:03:42;7.82;;;5.32;;
43457;SDS011;29046;54.184;18.680;2022-12-29T04:06:15;10.52;;;6.47;;
43457;SDS011;29046;54.184;18.680;2022-12-29T04:09:03;10.43;;;6.68;;
43457;SDS011;29046;54.184;18.680;2022-12-29T04:11:37;10.45;;;6.75;;
43457;SDS011;29046;54.184;18.680;2022-12-29T04:14:25;10.40;;;5.32;;
43457;SDS011;29046;54.184;18.680;2022-12-29T04:16:58;9.45;;;6.20;;
43457;SDS011;29046;54.184;18.680;2022-12-29T04:19:46;11.95;;;5.35;;
43457;SDS011;29046;54.184;18.680;2022-12-29T04:22:19;10.68;;;6.07;;
43457;SDS011;29046;54.184;18.680;2022-12-29T04:25:07;9.68;;;6.78;;
43457;SDS011;29046;54.184;18.680;2022-12-29T04:27:41;9.68;;;6.57;;
43457;SDS011;29046;54.184;18.680;2022-12-29T04:30:29;9.75;;;5.63;;
43457;SDS011;29046;54.184;18.680;2022-12-29T04:33:02;9.70;;;6.15;;
43457;SDS011;29046;54.184;18.680;2022-12-29T04:35:50;11.43;;;6.80;;
43457;SDS011;29046;54.184;18.680;2022-12-29T04:38:33;13.35;;;5.75;;
43457;SDS011;29046;54.184;18.680;2022-12-29T04:41:14;12.50;;;5.75;;
43457;SDS011;29046;54.184;18.680;2022-12-29T04:43:55;11.07;;;7.55;;
43457;SDS011;29046;54.184;18.680;2022-12-29T04:46:43;14.65;;;8.85;;
43457;SDS011;29046;54.184;18.680;2022-12-29T04:49:23;17.52;;;9.45;;
43457;SDS011;29046;54.184;18.680;2022-12-29T04:52:11;12.65;;;8.18;;
43457;SDS011;29046;54.184;18.680;2022-12-29T04:54:45;7.32;;;4.15;;
43457;SDS011;29046;54.184;18.680;2022-12-29T04:57:33;12.02;;;6.22;;
43457;SDS011;29046;54.184;18.680;2022-12-29T05:00:14;14.07;;;6.90;;
43457;SDS011;29046;54.184;18.680;2022-12-29T05:02:55;10.05;;;7.22;;
43457;SDS011;29046;54.184;18.680;2022-12-29T05:05:35;8.40;;;5.57;;
43457;SDS011;29046;54.184;18.680;2022-12-29T05:08:23;9.27;;;5.10;;
43457;SDS011;29046;54.184;18.680;2022-12-29T05:13:48;8.88;;;5.15;;
43457;SDS011;29046;54.184;18.680;2022-12-29T05:16:22;13.70;;;7.18;;
43457;SDS011;29046;54.184;18.680;2022-12-29T05:19:10;10.07;;;6.43;;
43457;SDS011;29046;54.184;18.680;2022-12-29T05:21:44;11.70;;;6.40;;
43457;SDS011;29046;54.184;18.680;2022-12-29T05:24:32;12.20;;;6.63;;
43457;SDS011;29046;54.184;18.680;2022-12-29T05:27:12;12.52;;;6.65;;
43457;SDS011;29046;54.184;18.680;2022-12-29T05:30:00;10.43;;;5.38;;
43457;SDS011;29046;54.184;18.680;2022-12-29T05:32:40;16.88;;;5.55;;
43457;SDS011;29046;54.184;18.680;2022-12-29T05:35:35;12.27;;;4.82;;
43457;SDS011;29046;54.184;18.680;2022-12-29T05:38:29;7.80;;;5.50;;
43457;SDS011;29046;54.184;18.680;2022-12-29T05:41:23;7.75;;;4.53;;
43457;SDS011;29046;54.184;18.680;2022-12-29T05:43:56;12.15;;;5.10;;
43457;SDS011;29046;54.184;18.680;2022-12-29T05:46:44;8.68;;;5.47;;
43457;SDS011;29046;54.184;18.680;2022-12-29T05:49:18;9.10;;;5.70;;
43457;SDS011;29046;54.184;18.680;2022-12-29T05:52:06;13.80;;;5.65;;
43457;SDS011;29046;54.184;18.680;2022-12-29T05:54:39;11.65;;;5.45;;
43457;SDS011;29046;54.184;18.680;2022-12-29T05:57:34;9.07;;;5.50;;
43457;SDS011;29046;54.184;18.680;2022-12-29T06:00:29;10.30;;;4.95;;
43457;SDS011;29046;54.184;18.680;2022-12-29T06:03:03;12.70;;;5.50;;
43457;SDS011;29046;54.184;18.680;2022-12-29T06:05:50;9.13;;;4.80;;
43457;SDS011;29046;54.184;18.680;2022-12-29T06:08:30;8.10;;;5.13;;
43457;SDS011;29046;54.184;18.680;2022-12-29T06:11:18;10.00;;;5.45;;
43457;SDS011;29046;54.184;18.680;2022-12-29T06:13:53;8.63;;;6.03;;
43457;SDS011;29046;54.184;18.680;2022-12-29T06:16:40;9.73;;;4.65;;
43457;SDS011;29046;54.184;18.680;2022-12-29T06:19:15;10.73;;;4.18;;
43457;SDS011;29046;54.184;18.680;2022-12-29T06:22:10;8.43;;;5.05;;
43457;SDS011;29046;54.184;18.680;2022-12-29T06:24:45;10.88;;;6.30;;
43457;SDS011;29046;54.184;18.680;2022-12-29T06:27:44;5.65;;;3.55;;
43457;SDS011;29046;54.184;18.680;2022-12-29T06:30:19;11.10;;;5.28;;
43457;SDS011;29046;54.184;18.680;2022-12-29T06:33:13;7.78;;;5.35;;
43457;SDS011;29046;54.184;18.680;2022-12-29T06:35:47;9.75;;;5.53;;
43457;SDS011;29046;54.184;18.680;2022-12-29T06:38:35;8.50;;;5.03;;
43457;SDS011;29046;54.184;18.680;2022-12-29T06:41:15;12.07;;;5.30;;
43457;SDS011;29046;54.184;18.680;2022-12-29T06:44:05;7.32;;;4.50;;
43457;SDS011;29046;54.184;18.680;2022-12-29T06:46:45;10.05;;;4.03;;
43457;SDS011;29046;54.184;18.680;2022-12-29T06:49:26;10.68;;;5.55;;
43457;SDS011;29046;54.184;18.680;2022-12-29T06:52:06;16.30;;;5.28;;
43457;SDS011;29046;54.184;18.680;2022-12-29T06:54:54;11.27;;;5.43;;
43457;SDS011;29046;54.184;18.680;2022-12-29T06:57:35;7.32;;;4.90;;
43457;SDS011;29046;54.184;18.680;2022-12-29T07:00:23;8.65;;;4.82;;
43457;SDS011;29046;54.184;18.680;2022-12-29T07:03:04;9.55;;;4.57;;
43457;SDS011;29046;54.184;18.680;2022-12-29T07:05:45;11.45;;;5.13;;
43457;SDS011;29046;54.184;18.680;2022-12-29T07:08:26;11.52;;;4.97;;
43457;SDS011;29046;54.184;18.680;2022-12-29T07:11:07;9.05;;;4.60;;
43457;SDS011;29046;54.184;18.680;2022-12-29T07:13:50;6.80;;;3.92;;
43457;SDS011;29046;54.184;18.680;2022-12-29T07:16:37;10.85;;;4.90;;
43457;SDS011;29046;54.184;18.680;2022-12-29T07:19:19;7.20;;;4.03;;
43457;SDS011;29046;54.184;18.680;2022-12-29T07:22:06;9.35;;;5.68;;
43457;SDS011;29046;54.184;18.680;2022-12-29T07:24:40;5.30;;;3.55;;
43457;SDS011;29046;54.184;18.680;2022-12-29T07:27:28;12.23;;;4.88;;
43457;SDS011;29046;54.184;18.680;2022-12-29T07:30:03;11.13;;;5.75;;
43457;SDS011;29046;54.184;18.680;2022-12-29T07:32:50;11.10;;;5.40;;
43457;SDS011;29046;54.184;18.680;2022-12-29T07:35:30;10.48;;;5.13;;
43457;SDS011;29046;54.184;18.680;2022-12-29T07:38:11;9.50;;;5.30;;
43457;SDS011;29046;54.184;18.680;2022-12-29T07:41:05;7.45;;;4.50;;
43457;SDS011;29046;54.184;18.680;2022-12-29T07:43:59;6.75;;;3.78;;
43457;SDS011;29046;54.184;18.680;2022-12-29T07:46:33;6.20;;;4.18;;
43457;SDS011;29046;54.184;18.680;2022-12-29T07:49:35;13.43;;;4.93;;
43457;SDS011;29046;54.184;18.680;2022-12-29T07:52:09;10.00;;;6.22;;
43457;SDS011;29046;54.184;18.680;2022-12-29T07:55:03;10.02;;;4.35;;
43457;SDS011;29046;54.184;18.680;2022-12-29T07:57:45;17.15;;;7.45;;
43457;SDS011;29046;54.184;18.680;2022-12-29T08:00:25;10.50;;;4.72;;
43457;SDS011;29046;54.184;18.680;2022-12-29T08:03:06;13.60;;;5.03;;
43457;SDS011;29046;54.184;18.680;2022-12-29T08:05:54;7.47;;;4.18;;
43457;SDS011;29046;54.184;18.680;2022-12-29T08:08:29;9.60;;;4.85;;
43457;SDS011;29046;54.184;18.680;2022-12-29T08:11:17;9.30;;;5.55;;
43457;SDS011;29046;54.184;18.680;2022-12-29T08:13:58;9.30;;;5.22;;
43457;SDS011;29046;54.184;18.680;2022-12-29T08:16:52;10.80;;;5.00;;
43457;SDS011;29046;54.184;18.680;2022-12-29T08:19:46;8.23;;;5.13;;
43457;SDS011;29046;54.184;18.680;2022-12-29T08:22:19;9.27;;;4.78;;
43457;SDS011;29046;54.184;18.680;2022-12-29T08:25:07;8.73;;;5.15;;
43457;SDS011;29046;54.184;18.680;2022-12-29T08:27:41;9.13;;;5.65;;
43457;SDS011;29046;54.184;18.680;2022-12-29T08:30:29;7.95;;;4.28;;
43457;SDS011;29046;54.184;18.680;2022-12-29T08:33:02;9.27;;;5.18;;
43457;SDS011;29046;54.184;18.680;2022-12-29T08:35:50;7.15;;;5.07;;
43457;SDS011;29046;54.184;18.680;2022-12-29T08:38:31;11.48;;;5.55;;
43457;SDS011;29046;54.184;18.680;2022-12-29T08:41:12;10.98;;;5.32;;
43457;SDS011;29046;54.184;18.680;2022-12-29T08:43:52;9.48;;;4.50;;
43457;SDS011;29046;54.184;18.680;2022-12-29T08:46:33;8.82;;;4.60;;
43457;SDS011;29046;54.184;18.680;2022-12-29T08:49:13;7.53;;;4.47;;
43457;SDS011;29046;54.184;18.680;2022-12-29T08:51:54;14.93;;;4.75;;
43457;SDS011;29046;54.184;18.680;2022-12-29T08:54:34;8.82;;;5.22;;
43457;SDS011;29046;54.184;18.680;2022-12-29T08:57:22;14.45;;;5.35;;
43457;SDS011;29046;54.184;18.680;2022-12-29T08:59:56;9.73;;;3.70;;
43457;SDS011;29046;54.184;18.680;2022-12-29T09:02:44;9.95;;;4.63;;
43457;SDS011;29046;54.184;18.680;2022-12-29T09:05:24;11.13;;;4.20;;
43457;SDS011;29046;54.184;18.680;2022-12-29T09:08:06;8.50;;;4.50;;
43457;SDS011;29046;54.184;18.680;2022-12-29T09:10:46;9.60;;;4.57;;
43457;SDS011;29046;54.184;18.680;2022-12-29T09:13:34;7.85;;;3.60;;
43457;SDS011;29046;54.184;18.680;2022-12-29T09:16:08;7.03;;;4.63;;
43457;SDS011;29046;54.184;18.680;2022-12-29T09:18:56;9.20;;;4.45;;
43457;SDS011;29046;54.184;18.680;2022-12-29T09:21:37;7.20;;;3.38;;
43457;SDS011;29046;54.184;18.680;2022-12-29T09:24:18;3.70;;;2.35;;
43457;SDS011;29046;54.184;18.680;2022-12-29T09:26:58;9.48;;;4.03;;
43457;SDS011;29046;54.184;18.680;2022-12-29T09:29:39;7.53;;;4.35;;
43457;SDS011;29046;54.184;18.680;2022-12-29T09:32:20;7.53;;;3.67;;
43457;SDS011;29046;54.184;18.680;2022-12-29T09:35:17;8.32;;;3.55;;
43457;SDS011;29046;54.184;18.680;2022-12-29T09:37:57;9.52;;;5.00;;
43457;SDS011;29046;54.184;18.680;2022-12-29T09:40:46;5.47;;;2.55;;
43457;SDS011;29046;54.184;18.680;2022-12-29T09:46:40;6.88;;;3.40;;
43457;SDS011;29046;54.184;18.680;2022-12-29T09:49:21;9.07;;;3.72;;
43457;SDS011;29046;54.184;18.680;2022-12-29T09:52:25;8.68;;;4.32;;
43457;SDS011;29046;54.184;18.680;2022-12-29T09:55:04;7.45;;;3.50;;
43457;SDS011;29046;54.184;18.680;2022-12-29T09:57:57;7.30;;;3.17;;
43457;SDS011;29046;54.184;18.680;2022-12-29T10:00:52;6.80;;;2.75;;
43457;SDS011;29046;54.184;18.680;2022-12-29T10:03:48;11.45;;;3.58;;
43457;SDS011;29046;54.184;18.680;2022-12-29T10:09:38;6.13;;;2.78;;
43457;SDS011;29046;54.184;18.680;2022-12-29T10:15:12;6.35;;;2.22;;
43457;SDS011;29046;54.184;18.680;2022-12-29T10:18:12;5.68;;;3.42;;
43457;SDS011;29046;54.184;18.680;2022-12-29T10:20:57;6.38;;;3.22;;
43457;SDS011;29046;54.184;18.680;2022-12-29T10:24:11;5.07;;;2.75;;
43457;SDS011;29046;54.184;18.680;2022-12-29T10:27:12;3.83;;;2.08;;
43457;SDS011;29046;54.184;18.680;2022-12-29T10:29:55;5.18;;;2.72;;
43457;SDS011;29046;54.184;18.680;2022-12-29T10:32:46;5.20;;;2.75;;
43457;SDS011;29046;54.184;18.680;2022-12-29T10:35:23;4.63;;;2.22;;
43457;SDS011;29046;54.184;18.680;2022-12-29T10:41:03;3.63;;;2.33;;
43457;SDS011;29046;54.184;18.680;2022-12-29T10:43:53;3.22;;;2.17;;
43457;SDS011;29046;54.184;18.680;2022-12-29T10:46:31;7.28;;;3.55;;
43457;SDS011;29046;54.184;18.680;2022-12-29T10:49:20;5.40;;;2.85;;
43457;SDS011;29046;54.184;18.680;2022-12-29T10:51:55;7.95;;;2.97;;
43457;SDS011;29046;54.184;18.680;2022-12-29T10:57:36;8.95;;;2.78;;
43457;SDS011;29046;54.184;18.680;2022-12-29T11:00:29;5.22;;;2.70;;
43457;SDS011;29046;54.184;18.680;2022-12-29T11:05:55;13.43;;;3.10;;
43457;SDS011;29046;54.184;18.680;2022-12-29T11:08:35;5.25;;;2.80;;
43457;SDS011;29046;54.184;18.680;2022-12-29T11:11:28;5.78;;;2.88;;
43457;SDS011;29046;54.184;18.680;2022-12-29T11:14:18;6.03;;;3.22;;
43457;SDS011;29046;54.184;18.680;2022-12-29T11:17:05;9.98;;;2.58;;
43457;SDS011;29046;54.184;18.680;2022-12-29T11:19:38;3.88;;;2.72;;
43457;SDS011;29046;54.184;18.680;2022-12-29T11:22:29;7.50;;;3.13;;
43457;SDS011;29046;54.184;18.680;2022-12-29T11:25:06;4.32;;;2.53;;
43457;SDS011;29046;54.184;18.680;2022-12-29T11:28:01;4.60;;;3.10;;
43457;SDS011;29046;54.184;18.680;2022-12-29T11:30:45;4.50;;;2.92;;
43457;SDS011;29046;54.184;18.680;2022-12-29T11:33:52;4.60;;;2.20;;
43457;SDS011;29046;54.184;18.680;2022-12-29T11:36:46;7.22;;;3.08;;
43457;SDS011;29046;54.184;18.680;2022-12-29T11:39:25;7.78;;;3.53;;
43457;SDS011;29046;54.184;18.680;2022-12-29T11:42:14;6.22;;;3.40;;
43457;SDS011;29046;54.184;18.680;2022-12-29T11:44:49;5.22;;;3.03;;
43457;SDS011;29046;54.184;18.680;2022-12-29T11:47:50;4.97;;;2.17;;
43457;SDS011;29046;54.184;18.680;2022-12-29T11:50:49;9.02;;;3.80;;
43457;SDS011;29046;54.184;18.680;2022-12-29T11:53:33;7.35;;;2.65;;
43457;SDS011;29046;54.184;18.680;2022-12-29T11:56:38;5.75;;;3.35;;
43457;SDS011;29046;54.184;18.680;2022-12-29T11:59:37;6.03;;;2.90;;
43457;SDS011;29046;54.184;18.680;2022-12-29T12:02:42;6.07;;;2.75;;
43457;SDS011;29046;54.184;18.680;2022-12-29T12:11:46;5.45;;;2.72;;
43457;SDS011;29046;54.184;18.680;2022-12-29T12:17:28;6.28;;;3.03;;
43457;SDS011;29046;54.184;18.680;2022-12-29T12:23:19;6.25;;;3.17;;
43457;SDS011;29046;54.184;18.680;2022-12-29T12:26:18;5.88;;;3.20;;
43457;SDS011;29046;54.184;18.680;2022-12-29T12:29:16;6.15;;;3.47;;
43457;SDS011;29046;54.184;18.680;2022-12-29T12:32:10;4.47;;;2.83;;
43457;SDS011;29046;54.184;18.680;2022-12-29T12:35:07;8.10;;;3.30;;
43457;SDS011;29046;54.184;18.680;2022-12-29T13:00:15;8.82;;;3.35;;
43457;SDS011;29046;54.184;18.680;2022-12-29T13:08:25;5.80;;;3.20;;
43457;SDS011;29046;54.184;18.680;2022-12-29T13:17:37;5.80;;;3.13;;
43457;SDS011;29046;54.184;18.680;2022-12-29T13:25:54;4.47;;;2.90;;
43457;SDS011;29046;54.184;18.680;2022-12-29T13:37:36;9.50;;;3.33;;
43457;SDS011;29046;54.184;18.680;2022-12-29T13:40:22;6.65;;;3.38;;
43457;SDS011;29046;54.184;18.680;2022-12-29T13:43:18;6.70;;;3.63;;
43457;SDS011;29046;54.184;18.680;2022-12-29T13:46:02;5.88;;;3.17;;
43457;SDS011;29046;54.184;18.680;2022-12-29T13:48:57;5.65;;;2.67;;
43457;SDS011;29046;54.184;18.680;2022-12-29T13:51:41;11.38;;;4.43;;
43457;SDS011;29046;54.184;18.680;2022-12-29T13:54:48;5.00;;;2.40;;
43457;SDS011;29046;54.184;18.680;2022-12-29T14:00:24;10.57;;;3.85;;
43457;SDS011;29046;54.184;18.680;2022-12-29T14:08:59;12.30;;;4.05;;
43457;SDS011;29046;54.184;18.680;2022-12-29T14:11:55;5.20;;;2.95;;
43457;SDS011;29046;54.184;18.680;2022-12-29T14:14:29;7.45;;;3.53;;
43457;SDS011;29046;54.184;18.680;2022-12-29T14:17:24;5.47;;;3.10;;
43457;SDS011;29046;54.184;18.680;2022-12-29T14:20:20;8.52;;;3.65;;
43457;SDS011;29046;54.184;18.680;2022-12-29T14:23:15;5.50;;;3.30;;
43457;SDS011;29046;54.184;18.680;2022-12-29T14:26:00;7.78;;;4.20;;
43457;SDS011;29046;54.184;18.680;2022-12-29T14:28:41;11.02;;;3.10;;
43457;SDS011;29046;54.184;18.680;2022-12-29T14:31:37;12.52;;;3.70;;
43457;SDS011;29046;54.184;18.680;2022-12-29T14:37:17;6.38;;;3.53;;
43457;SDS011;29046;54.184;18.680;2022-12-29T14:43:02;9.48;;;4.00;;
43457;SDS011;29046;54.184;18.680;2022-12-29T14:46:09;8.50;;;4.00;;
43457;SDS011;29046;54.184;18.680;2022-12-29T14:48:54;6.82;;;3.90;;
43457;SDS011;29046;54.184;18.680;2022-12-29T14:51:35;9.82;;;4.85;;
43457;SDS011;29046;54.184;18.680;2022-12-29T14:57:07;7.57;;;4.30;;
43457;SDS011;29046;54.184;18.680;2022-12-29T15:00:15;7.50;;;3.88;;
43457;SDS011;29046;54.184;18.680;2022-12-29T15:08:39;7.90;;;4.18;;
43457;SDS011;29046;54.184;18.680;2022-12-29T15:11:41;9.27;;;4.25;;
43457;SDS011;29046;54.184;18.680;2022-12-29T15:14:28;10.57;;;4.40;;
43457;SDS011;29046;54.184;18.680;2022-12-29T15:17:34;9.18;;;3.70;;
43457;SDS011;29046;54.184;18.680;2022-12-29T15:23:36;13.60;;;4.60;;
43457;SDS011;29046;54.184;18.680;2022-12-29T15:27:04;10.25;;;4.88;;
43457;SDS011;29046;54.184;18.680;2022-12-29T15:32:38;17.88;;;5.63;;
43457;SDS011;29046;54.184;18.680;2022-12-29T15:35:22;15.85;;;5.50;;
43457;SDS011;29046;54.184;18.680;2022-12-29T15:38:14;13.57;;;6.22;;
43457;SDS011;29046;54.184;18.680;2022-12-29T15:41:22;11.88;;;5.90;;
43457;SDS011;29046;54.184;18.680;2022-12-29T15:44:17;12.25;;;5.85;;
43457;SDS011;29046;54.184;18.680;2022-12-29T15:46:54;16.35;;;7.05;;
43457;SDS011;29046;54.184;18.680;2022-12-29T15:49:42;15.60;;;7.03;;
43457;SDS011;29046;54.184;18.680;2022-12-29T15:52:19;13.57;;;6.20;;
43457;SDS011;29046;54.184;18.680;2022-12-29T15:55:17;16.60;;;6.88;;
43457;SDS011;29046;54.184;18.680;2022-12-29T15:57:57;14.30;;;7.75;;
43457;SDS011;29046;54.184;18.680;2022-12-29T16:00:50;17.30;;;7.70;;
43457;SDS011;29046;54.184;18.680;2022-12-29T16:03:28;15.82;;;7.18;;
43457;SDS011;29046;54.184;18.680;2022-12-29T16:06:37;19.10;;;7.82;;
43457;SDS011;29046;54.184;18.680;2022-12-29T16:09:16;12.50;;;6.80;;
43457;SDS011;29046;54.184;18.680;2022-12-29T16:12:06;14.85;;;6.55;;
43457;SDS011;29046;54.184;18.680;2022-12-29T16:17:42;7.82;;;4.50;;
43457;SDS011;29046;54.184;18.680;2022-12-29T16:20:34;11.95;;;6.03;;
43457;SDS011;29046;54.184;18.680;2022-12-29T16:23:20;11.30;;;6.45;;
43457;SDS011;29046;54.184;18.680;2022-12-29T16:26:01;8.00;;;4.00;;
43457;SDS011;29046;54.184;18.680;2022-12-29T16:28:56;12.90;;;5.85;;
43457;SDS011;29046;54.184;18.680;2022-12-29T16:31:34;10.82;;;4.97;;
43457;SDS011;29046;54.184;18.680;2022-12-29T16:37:27;7.30;;;3.25;;
43457;SDS011;29046;54.184;18.680;2022-12-29T16:40:20;12.63;;;5.05;;
43457;SDS011;29046;54.184;18.680;2022-12-29T16:43:00;11.27;;;5.05;;
43457;SDS011;29046;54.184;18.680;2022-12-29T16:48:33;12.85;;;4.82;;
43457;SDS011;29046;54.184;18.680;2022-12-29T16:54:40;12.18;;;5.63;;
43457;SDS011;29046;54.184;18.680;2022-12-29T16:57:14;11.13;;;4.78;;
43457;SDS011;29046;54.184;18.680;2022-12-29T17:00:07;10.65;;;4.28;;
43457;SDS011;29046;54.184;18.680;2022-12-29T17:02:51;9.85;;;5.18;;
43457;SDS011;29046;54.184;18.680;2022-12-29T17:05:39;7.13;;;3.78;;
43457;SDS011;29046;54.184;18.680;2022-12-29T17:08:21;7.38;;;4.13;;
43457;SDS011;29046;54.184;18.680;2022-12-29T17:14:41;8.00;;;4.32;;
43457;SDS011;29046;54.184;18.680;2022-12-29T17:22:58;8.02;;;4.30;;
43457;SDS011;29046;54.184;18.680;2022-12-29T17:25:33;6.93;;;3.70;;
43457;SDS011;29046;54.184;18.680;2022-12-29T17:28:23;11.68;;;4.63;;
43457;SDS011;29046;54.184;18.680;2022-12-29T17:30:59;10.02;;;4.35;;
43457;SDS011;29046;54.184;18.680;2022-12-29T17:33:47;10.45;;;5.32;;
43457;SDS011;29046;54.184;18.680;2022-12-29T17:36:20;9.07;;;4.75;;
43457;SDS011;29046;54.184;18.680;2022-12-29T17:39:08;14.75;;;6.95;;
43457;SDS011;29046;54.184;18.680;2022-12-29T17:41:42;4.20;;;3.00;;
43457;SDS011;29046;54.184;18.680;2022-12-29T17:44:31;23.77;;;9.95;;
43457;SDS011;29046;54.184;18.680;2022-12-29T17:47:04;13.93;;;8.20;;
43457;SDS011;29046;54.184;18.680;2022-12-29T17:49:54;7.28;;;3.95;;
43457;SDS011;29046;54.184;18.680;2022-12-29T17:52:27;8.35;;;3.85;;
43457;SDS011;29046;54.184;18.680;2022-12-29T17:55:16;13.27;;;4.82;;
43457;SDS011;29046;54.184;18.680;2022-12-29T17:57:56;15.45;;;6.55;;
43457;SDS011;29046;54.184;18.680;2022-12-29T18:00:45;20.70;;;8.82;;
43457;SDS011;29046;54.184;18.680;2022-12-29T18:03:20;22.02;;;7.03;;
43457;SDS011;29046;54.184;18.680;2022-12-29T18:06:29;10.13;;;4.73;;
43457;SDS011;29046;54.184;18.680;2022-12-29T18:09:23;9.05;;;3.80;;
43457;SDS011;29046;54.184;18.680;2022-12-29T18:11:57;8.98;;;3.85;;
43457;SDS011;29046;54.184;18.680;2022-12-29T18:14:51;8.60;;;3.67;;
43457;SDS011;29046;54.184;18.680;2022-12-29T18:17:45;10.27;;;3.97;;
43457;SDS011;29046;54.184;18.680;2022-12-29T18:20:20;9.32;;;4.10;;
43457;SDS011;29046;54.184;18.680;2022-12-29T18:23:21;11.30;;;4.47;;
43457;SDS011;29046;54.184;18.680;2022-12-29T18:26:21;6.95;;;4.13;;
43457;SDS011;29046;54.184;18.680;2022-12-29T18:28:57;8.45;;;3.72;;
43457;SDS011;29046;54.184;18.680;2022-12-29T18:31:44;9.05;;;3.92;;
43457;SDS011;29046;54.184;18.680;2022-12-29T18:34:17;7.03;;;2.70;;
43457;SDS011;29046;54.184;18.680;2022-12-29T18:37:05;7.80;;;3.47;;
43457;SDS011;29046;54.184;18.680;2022-12-29T18:39:39;7.85;;;3.47;;
43457;SDS011;29046;54.184;18.680;2022-12-29T18:42:26;5.85;;;3.80;;
43457;SDS011;29046;54.184;18.680;2022-12-29T18:45:00;6.55;;;3.53;;
43457;SDS011;29046;54.184;18.680;2022-12-29T18:47:55;7.28;;;4.13;;
43457;SDS011;29046;54.184;18.680;2022-12-29T18:50:49;9.45;;;3.25;;
43457;SDS011;29046;54.184;18.680;2022-12-29T18:53:24;8.02;;;3.90;;
43457;SDS011;29046;54.184;18.680;2022-12-29T18:56:16;9.30;;;3.67;;
43457;SDS011;29046;54.184;18.680;2022-12-29T18:58:50;10.57;;;3.63;;
43457;SDS011;29046;54.184;18.680;2022-12-29T19:01:44;11.48;;;4.65;;
43457;SDS011;29046;54.184;18.680;2022-12-29T19:04:18;6.97;;;3.42;;
43457;SDS011;29046;54.184;18.680;2022-12-29T19:07:05;6.13;;;2.38;;
43457;SDS011;29046;54.184;18.680;2022-12-29T19:09:46;3.50;;;1.67;;
43457;SDS011;29046;54.184;18.680;2022-12-29T19:12:33;4.82;;;3.00;;